Terminal Aerodrome Forecast
Issued by NWS

Home | Current Version | Previous Version | Text Only | Print | Product List | Glossary On
Versions: 1 2 3 4 5 6 7 8 9 10 11 12 13 14 15 16
000
FTAK31 PAJN 311142
TAFASI
TAF
PASI 311142Z 3112/0112 11006KT P6SM -SHRA FEW025 BKN050 OVC080
      TEMPO 3112/3116 VRB04KT 5SM -SHRA BR BKN025 OVC050
     FM311700 21006KT P6SM -SHRA SCT025 OVC050
     FM010000 18008KT P6SM -SHRA SCT025 OVC050
     FM010400 10005KT P6SM VCSH BKN050=

USA.gov is the U.S. government's official web portal to all federal, state and local government web resources and services.